createdAt,value
2022-07-29T00:01:43.045Z,26.30
2022-07-29T00:04:10.554Z,26.34
2022-07-29T00:06:37.838Z,26.40
2022-07-29T00:09:05.528Z,26.47
2022-07-29T00:11:32.943Z,26.48
2022-07-29T00:14:00.233Z,26.48
2022-07-29T00:16:27.702Z,26.25
2022-07-29T00:18:54.981Z,26.21
2022-07-29T00:21:22.275Z,26.16
2022-07-29T00:23:49.707Z,26.21
2022-07-29T00:26:16.902Z,26.18
2022-07-29T00:28:44.256Z,26.18
2022-07-29T00:31:12.014Z,26.10
2022-07-29T00:33:39.292Z,25.95
2022-07-29T00:36:06.748Z,25.86
2022-07-29T00:38:34.037Z,25.83
2022-07-29T00:41:01.315Z,25.82
2022-07-29T00:43:28.510Z,25.82
2022-07-29T00:45:56.196Z,25.80
2022-07-29T00:48:23.479Z,25.83
2022-07-29T00:50:50.881Z,25.83
2022-07-29T00:53:18.210Z,25.88
2022-07-29T00:55:45.929Z,25.92
2022-07-29T00:58:14.595Z,25.78
2022-07-29T01:00:43.970Z,25.77
2022-07-29T01:03:13.609Z,25.64
2022-07-29T01:05:50.429Z,25.57
2022-07-29T01:08:21.461Z,25.57
2022-07-29T01:10:50.122Z,25.56
2022-07-29T01:13:18.046Z,25.55
2022-07-29T01:15:53.849Z,25.59
2022-07-29T01:18:29.056Z,25.62
2022-07-29T01:21:09.211Z,25.50
2022-07-29T01:23:44.656Z,25.36
2022-07-29T01:26:37.146Z,25.27
2022-07-29T01:29:25.792Z,25.11
2022-07-29T01:32:07.029Z,24.92
2022-07-29T01:34:40.539Z,24.80
2022-07-29T01:37:23.483Z,24.75
2022-07-29T01:39:53.703Z,24.60
2022-07-29T01:42:46.415Z,24.58
2022-07-29T01:45:38.373Z,24.64
2022-07-29T01:48:17.884Z,24.62
2022-07-29T01:50:51.826Z,24.70
2022-07-29T01:53:43.832Z,24.78
2022-07-29T01:56:13.510Z,24.75
2022-07-29T01:58:43.415Z,24.74
2022-07-29T02:01:13.811Z,24.66
2022-07-29T02:03:47.235Z,24.83
2022-07-29T02:06:19.804Z,24.82
2022-07-29T02:08:48.348Z,24.75
2022-07-29T02:11:15.553Z,24.62
2022-07-29T02:13:44.620Z,24.56
2022-07-29T02:16:13.171Z,24.35
2022-07-29T02:18:43.264Z,24.32
2022-07-29T02:21:15.184Z,24.39
2022-07-29T02:23:50.940Z,24.34
2022-07-29T02:26:21.646Z,24.41
2022-07-29T02:28:51.016Z,24.46
2022-07-29T02:31:22.962Z,24.49
2022-07-29T02:33:51.546Z,24.49
2022-07-29T02:36:22.253Z,24.53
2022-07-29T02:38:54.653Z,24.52
2022-07-29T02:41:27.477Z,24.46
2022-07-29T02:44:05.375Z,24.55
2022-07-29T02:46:36.108Z,24.58
2022-07-29T02:49:10.834Z,24.65
2022-07-29T02:51:50.535Z,24.69
2022-07-29T02:54:25.471Z,24.70
2022-07-29T02:56:56.602Z,24.76
2022-07-29T02:59:28.243Z,24.83
2022-07-29T03:01:56.870Z,24.84
2022-07-29T03:04:26.960Z,24.93
2022-07-29T03:06:55.706Z,24.93
2022-07-29T03:09:24.560Z,25.00
2022-07-29T03:11:52.184Z,25.09
2022-07-29T03:14:21.263Z,25.07
2022-07-29T03:16:50.102Z,25.09
2022-07-29T03:19:18.492Z,25.15
2022-07-29T03:21:45.926Z,25.22
2022-07-29T03:24:33.476Z,25.24
2022-07-29T03:27:01.385Z,25.36
2022-07-29T03:29:33.104Z,25.29
2022-07-29T03:32:08.264Z,25.42
2022-07-29T03:34:37.723Z,25.39
2022-07-29T03:37:07.203Z,25.49
2022-07-29T03:39:40.411Z,25.55
2022-07-29T03:42:09.703Z,25.63
2022-07-29T03:44:38.435Z,25.66
2022-07-29T03:47:09.255Z,25.68
2022-07-29T03:49:39.282Z,25.71
2022-07-29T03:52:07.369Z,25.75
2022-07-29T03:54:35.065Z,25.79
2022-07-29T03:57:03.582Z,25.77
2022-07-29T03:59:33.884Z,25.79
2022-07-29T04:02:04.493Z,25.79
2022-07-29T04:04:34.635Z,25.85
2022-07-29T04:07:02.248Z,25.78
2022-07-29T04:09:29.748Z,25.84
2022-07-29T04:12:02.977Z,25.94
2022-07-29T04:14:32.304Z,26.14
2022-07-29T04:17:00.257Z,26.02
2022-07-29T04:19:27.780Z,25.99
2022-07-29T04:21:55.110Z,26.03
2022-07-29T04:24:22.515Z,26.07
2022-07-29T04:26:50.138Z,26.08
2022-07-29T04:29:17.371Z,26.00
2022-07-29T04:31:45.033Z,25.99
2022-07-29T04:34:13.727Z,26.03
2022-07-29T04:36:41.289Z,25.99
2022-07-29T04:39:08.704Z,26.05
2022-07-29T04:41:35.812Z,26.03
2022-07-29T04:44:07.000Z,26.10
2022-07-29T04:46:36.086Z,26.17
2022-07-29T04:49:04.663Z,26.22
2022-07-29T04:51:32.510Z,26.25
2022-07-29T04:53:59.739Z,26.36
2022-07-29T04:56:27.719Z,26.44
2022-07-29T04:58:55.185Z,26.46
2022-07-29T05:01:22.571Z,26.54
2022-07-29T05:03:50.055Z,26.63
2022-07-29T05:06:17.438Z,26.73
2022-07-29T05:08:44.936Z,26.77
2022-07-29T05:11:14.929Z,26.73
2022-07-29T05:13:47.171Z,26.85
2022-07-29T05:16:15.899Z,26.86
2022-07-29T05:18:43.392Z,26.92
2022-07-29T05:21:10.927Z,27.06
2022-07-29T05:23:38.441Z,27.14
2022-07-29T05:26:05.600Z,27.23
2022-07-29T05:28:38.983Z,27.35
2022-07-29T05:31:06.349Z,27.39
2022-07-29T05:33:36.504Z,27.43
2022-07-29T05:36:08.194Z,27.58
2022-07-29T05:38:36.773Z,27.67
2022-07-29T05:41:05.331Z,27.78
2022-07-29T05:43:33.204Z,27.82
2022-07-29T05:46:00.654Z,27.85
2022-07-29T05:48:28.958Z,27.98
2022-07-29T05:50:56.318Z,28.09
2022-07-29T05:53:24.051Z,28.13
2022-07-29T05:55:51.939Z,28.12
2022-07-29T05:58:19.868Z,28.19
2022-07-29T06:00:47.127Z,28.21
2022-07-29T06:03:14.514Z,28.26
2022-07-29T06:05:42.006Z,28.33
2022-07-29T06:08:09.259Z,28.32
2022-07-29T06:10:37.441Z,28.39
2022-07-29T06:13:04.852Z,28.41
2022-07-29T06:15:32.244Z,28.43
2022-07-29T06:18:01.601Z,28.50
2022-07-29T06:20:33.160Z,28.59
2022-07-29T06:23:00.881Z,28.62
2022-07-29T06:25:31.877Z,28.73
2022-07-29T06:27:59.256Z,28.78
2022-07-29T06:30:26.695Z,28.85
2022-07-29T06:32:54.423Z,28.88
2022-07-29T06:35:39.167Z,28.82
2022-07-29T06:38:25.092Z,28.89
2022-07-29T06:41:07.026Z,29.06
2022-07-29T06:43:50.364Z,29.07
2022-07-29T06:46:21.370Z,29.12
2022-07-29T06:48:49.322Z,29.17
2022-07-29T06:51:22.676Z,29.22
2022-07-29T06:53:59.447Z,29.27
2022-07-29T06:56:38.582Z,29.34
2022-07-29T06:59:09.146Z,29.38
2022-07-29T07:01:41.021Z,29.46
2022-07-29T07:04:10.170Z,29.50
2022-07-29T07:06:37.746Z,29.51
2022-07-29T07:09:05.526Z,29.58
2022-07-29T07:11:33.956Z,29.68
2022-07-29T07:14:03.918Z,29.70
2022-07-29T07:16:32.858Z,29.79
2022-07-29T07:19:01.098Z,29.89
2022-07-29T07:21:30.605Z,29.95
2022-07-29T07:23:59.499Z,29.98
2022-07-29T07:26:27.096Z,29.99
2022-07-29T07:28:54.441Z,30.08
2022-07-29T07:31:21.837Z,30.02
2022-07-29T07:33:49.334Z,30.09
2022-07-29T07:36:16.617Z,30.13
2022-07-29T07:38:43.775Z,30.13
2022-07-29T07:41:11.095Z,30.11
2022-07-29T07:43:38.956Z,30.15
2022-07-29T07:46:06.227Z,30.15
2022-07-29T07:48:36.083Z,30.21
2022-07-29T07:51:03.473Z,30.20
2022-07-29T07:53:31.637Z,30.23
2022-07-29T07:56:15.706Z,30.34
2022-07-29T07:58:43.175Z,30.38
2022-07-29T08:01:11.278Z,30.43
2022-07-29T08:03:39.092Z,30.46
2022-07-29T08:06:07.613Z,30.61
2022-07-29T08:08:35.207Z,30.64
2022-07-29T08:11:09.548Z,30.62
2022-07-29T08:13:39.374Z,30.61
2022-07-29T08:16:14.178Z,30.59
2022-07-29T08:18:43.427Z,30.62
2022-07-29T08:21:11.280Z,30.58
2022-07-29T08:23:51.629Z,30.47
2022-07-29T08:26:23.672Z,30.53
2022-07-29T08:28:52.099Z,30.42
2022-07-29T08:31:19.561Z,30.56
2022-07-29T08:33:47.034Z,30.69
2022-07-29T08:36:14.759Z,30.70
2022-07-29T08:38:42.253Z,30.81
2022-07-29T08:41:09.632Z,30.83
2022-07-29T08:43:38.674Z,31.00
2022-07-29T08:46:06.200Z,31.08
2022-07-29T08:48:34.586Z,31.18
2022-07-29T08:51:03.154Z,31.17
2022-07-29T08:53:33.375Z,31.10
2022-07-29T08:56:03.086Z,31.10
2022-07-29T08:58:36.955Z,31.15
2022-07-29T09:01:07.691Z,31.26
2022-07-29T09:03:42.850Z,31.29
2022-07-29T09:06:10.851Z,31.28
2022-07-29T09:08:38.180Z,31.23
2022-07-29T09:11:05.870Z,31.20
2022-07-29T09:13:33.401Z,31.29
2022-07-29T09:16:04.495Z,31.29
2022-07-29T09:18:42.122Z,31.48
2022-07-29T09:21:33.787Z,31.45
2022-07-29T09:24:15.465Z,31.51
2022-07-29T09:26:45.821Z,31.59
2022-07-29T09:29:19.305Z,31.49
2022-07-29T09:31:49.769Z,31.47
2022-07-29T09:34:22.554Z,31.51
2022-07-29T09:36:51.767Z,31.53
2022-07-29T09:39:33.079Z,31.55
2022-07-29T09:42:03.539Z,31.53
2022-07-29T09:44:49.411Z,31.68
2022-07-29T09:47:18.490Z,31.58
2022-07-29T09:50:01.695Z,31.64
2022-07-29T09:52:31.884Z,31.64
2022-07-29T09:55:13.830Z,31.71
2022-07-29T09:57:47.612Z,31.66
2022-07-29T10:00:20.415Z,31.73
2022-07-29T10:02:48.891Z,31.73
2022-07-29T10:05:26.155Z,31.78
2022-07-29T10:07:59.687Z,31.68
2022-07-29T10:10:32.933Z,31.81
2022-07-29T10:13:08.891Z,31.83
2022-07-29T10:15:42.132Z,31.79
2022-07-29T10:18:10.321Z,31.90
2022-07-29T10:20:38.690Z,31.98
2022-07-29T10:23:06.896Z,32.10
2022-07-29T10:25:34.674Z,32.12
2022-07-29T10:28:02.044Z,32.13
2022-07-29T10:30:29.864Z,32.14
2022-07-29T10:33:12.925Z,32.28
2022-07-29T10:35:54.093Z,32.29
2022-07-29T10:39:09.470Z,32.33
2022-07-29T10:41:56.185Z,32.26
2022-07-29T10:44:26.219Z,32.23
2022-07-29T10:46:54.834Z,32.19
2022-07-29T10:49:30.496Z,32.35
2022-07-29T10:52:08.404Z,32.40
2022-07-29T10:54:44.205Z,32.39
2022-07-29T10:57:25.766Z,32.42
2022-07-29T11:00:17.061Z,32.26
2022-07-29T11:02:47.003Z,32.12
2022-07-29T11:05:20.605Z,32.11
2022-07-29T11:08:20.127Z,32.07
2022-07-29T11:10:50.140Z,32.01
2022-07-29T11:13:52.321Z,32.06
2022-07-29T11:16:26.797Z,31.95
2022-07-29T11:19:14.159Z,32.04
2022-07-29T11:21:55.162Z,32.01
2022-07-29T11:24:32.356Z,32.06
2022-07-29T11:27:40.777Z,32.06
2022-07-29T11:30:10.917Z,31.97
2022-07-29T11:32:41.047Z,32.07
2022-07-29T11:35:37.682Z,32.08
2022-07-29T11:38:28.799Z,31.96
2022-07-29T11:41:18.353Z,32.05
2022-07-29T11:44:01.384Z,32.00
2022-07-29T11:46:50.098Z,32.01
2022-07-29T11:49:32.024Z,31.94
2022-07-29T11:52:04.265Z,31.94
2022-07-29T11:54:38.878Z,31.96
2022-07-29T11:57:22.210Z,32.02
2022-07-29T11:59:50.737Z,32.06
2022-07-29T12:05:11.125Z,32.04
2022-07-29T12:07:02.499Z,31.98
2022-07-29T12:07:41.058Z,31.96
2022-07-29T12:10:19.785Z,31.92
2022-07-29T12:12:57.044Z,31.92
2022-07-29T12:15:39.281Z,31.92
2022-07-29T12:18:24.059Z,31.96
2022-07-29T12:21:06.151Z,31.90
2022-07-29T12:23:34.409Z,31.86
2022-07-29T12:26:10.859Z,31.86
2022-07-29T12:28:49.977Z,31.88
2022-07-29T12:31:41.882Z,31.87
2022-07-29T12:34:05.304Z,31.94
2022-07-29T12:36:33.644Z,31.89
2022-07-29T12:39:01.115Z,32.00
2022-07-29T12:41:32.165Z,32.09
2022-07-29T12:43:59.584Z,32.10
2022-07-29T12:46:26.970Z,32.11
2022-07-29T12:48:59.830Z,32.16
2022-07-29T12:51:32.430Z,32.09
2022-07-29T12:54:30.512Z,32.11
2022-07-29T12:57:01.487Z,32.07
2022-07-29T12:59:28.923Z,32.00
2022-07-29T13:01:56.500Z,31.94
2022-07-29T13:04:32.208Z,31.95
2022-07-29T13:07:05.311Z,32.07
2022-07-29T13:09:49.659Z,32.06
2022-07-29T13:12:17.297Z,32.19
2022-07-29T13:14:47.300Z,32.28
2022-07-29T13:17:16.892Z,32.38
2022-07-29T13:20:13.749Z,32.47
2022-07-29T13:22:48.992Z,32.50
2022-07-29T13:25:25.779Z,32.56
2022-07-29T13:27:55.566Z,32.57
2022-07-29T13:30:24.512Z,32.50
2022-07-29T13:32:53.617Z,32.58
2022-07-29T13:35:21.462Z,32.58
2022-07-29T13:37:50.086Z,32.58
2022-07-29T13:40:19.466Z,32.53
2022-07-29T13:42:47.060Z,32.53
2022-07-29T13:45:14.823Z,32.66
2022-07-29T13:47:47.449Z,32.70
2022-07-29T13:50:16.867Z,32.74
2022-07-29T13:52:44.228Z,32.79
2022-07-29T13:55:11.662Z,32.69
2022-07-29T13:57:39.066Z,32.74
2022-07-29T14:00:06.828Z,32.78
2022-07-29T14:02:36.031Z,32.77
2022-07-29T14:05:07.992Z,32.70
2022-07-29T14:07:36.019Z,32.67
2022-07-29T14:10:04.327Z,32.59
2022-07-29T14:12:32.464Z,32.61
2022-07-29T14:15:00.304Z,32.59
2022-07-29T14:17:28.007Z,32.54
2022-07-29T14:19:55.392Z,32.47
2022-07-29T14:22:24.608Z,32.42
2022-07-29T14:24:53.681Z,32.51
2022-07-29T14:27:37.783Z,32.54
2022-07-29T14:30:07.363Z,32.56
2022-07-29T14:32:34.999Z,32.47
2022-07-29T14:35:02.537Z,32.56
2022-07-29T14:37:39.720Z,32.46
2022-07-29T14:40:08.925Z,32.26
2022-07-29T14:42:38.842Z,32.24
2022-07-29T14:45:09.101Z,32.12
2022-07-29T14:47:36.838Z,32.01
2022-07-29T14:50:05.406Z,31.98
2022-07-29T14:52:32.882Z,31.87
2022-07-29T14:55:00.722Z,31.76
2022-07-29T14:57:28.596Z,31.72
2022-07-29T14:59:56.686Z,31.67
2022-07-29T15:02:40.005Z,31.59
2022-07-29T15:05:12.044Z,31.55
2022-07-29T15:07:39.648Z,31.59
2022-07-29T15:10:07.732Z,31.59
2022-07-29T15:12:36.048Z,31.62
2022-07-29T15:15:03.689Z,31.60
2022-07-29T15:17:31.883Z,31.65
2022-07-29T15:19:59.147Z,31.65
2022-07-29T15:22:26.492Z,31.61
2022-07-29T15:24:54.018Z,31.65
2022-07-29T15:27:21.581Z,31.64
2022-07-29T15:29:49.122Z,31.69
2022-07-29T15:32:16.596Z,31.77
2022-07-29T15:34:44.067Z,31.76
2022-07-29T15:37:12.613Z,31.68
2022-07-29T15:39:40.206Z,31.76
2022-07-29T15:42:07.611Z,31.69
2022-07-29T15:44:35.594Z,31.77
2022-07-29T15:47:08.769Z,31.78
2022-07-29T15:49:48.500Z,31.78
2022-07-29T15:52:25.198Z,31.83
2022-07-29T15:54:57.903Z,31.84
2022-07-29T15:57:26.144Z,31.88
2022-07-29T15:59:53.797Z,31.81
2022-07-29T16:02:21.348Z,31.91
2022-07-29T16:04:48.895Z,31.85
2022-07-29T16:07:16.884Z,31.86
2022-07-29T16:09:49.366Z,31.87
2022-07-29T16:12:18.721Z,31.84
2022-07-29T16:14:46.342Z,31.80
2022-07-29T16:17:14.236Z,31.71
2022-07-29T16:19:44.173Z,31.72
2022-07-29T16:22:12.706Z,31.71
2022-07-29T16:24:40.460Z,31.69
2022-07-29T16:27:08.336Z,31.60
2022-07-29T16:29:37.416Z,31.57
2022-07-29T16:32:07.182Z,31.58
2022-07-29T16:34:34.796Z,31.54
2022-07-29T16:37:02.851Z,31.55
2022-07-29T16:39:30.372Z,31.54
2022-07-29T16:42:00.792Z,31.53
2022-07-29T16:44:29.163Z,31.47
2022-07-29T16:46:59.318Z,31.41
2022-07-29T16:49:28.518Z,31.35
2022-07-29T16:51:55.988Z,31.30
2022-07-29T16:54:23.659Z,31.27
2022-07-29T16:56:51.133Z,31.18
2022-07-29T16:59:18.718Z,31.17
2022-07-29T17:01:46.082Z,31.07
2022-07-29T17:04:15.339Z,30.97
2022-07-29T17:06:43.138Z,30.90
2022-07-29T17:09:12.750Z,30.94
2022-07-29T17:11:53.687Z,30.85
2022-07-29T17:14:27.828Z,30.80
2022-07-29T17:17:00.365Z,30.79
2022-07-29T17:19:31.751Z,30.73
2022-07-29T17:22:08.441Z,30.66
2022-07-29T17:24:38.293Z,30.63
2022-07-29T17:27:06.498Z,30.58
2022-07-29T17:29:37.386Z,30.56
2022-07-29T17:32:07.550Z,30.43
2022-07-29T17:34:39.554Z,30.48
2022-07-29T17:37:09.668Z,30.49
2022-07-29T17:39:40.856Z,30.39
2022-07-29T17:42:09.744Z,30.38
2022-07-29T17:44:38.010Z,30.32
2022-07-29T17:47:10.652Z,30.30
2022-07-29T17:49:44.648Z,30.11
2022-07-29T17:52:12.088Z,30.04
2022-07-29T17:54:39.293Z,29.94
2022-07-29T17:57:07.116Z,29.84
2022-07-29T17:59:34.602Z,29.83
2022-07-29T18:02:01.999Z,29.77
2022-07-29T18:04:31.119Z,29.69
2022-07-29T18:06:58.678Z,29.67
2022-07-29T18:09:26.158Z,29.58
2022-07-29T18:11:53.425Z,29.57
2022-07-29T18:14:20.582Z,29.57
2022-07-29T18:16:48.252Z,29.51
2022-07-29T18:19:16.316Z,29.38
2022-07-29T18:21:51.914Z,29.45
2022-07-29T18:24:25.776Z,29.42
2022-07-29T18:26:54.196Z,29.34
2022-07-29T18:29:21.861Z,29.25
2022-07-29T18:31:49.631Z,29.20
2022-07-29T18:34:17.246Z,29.12
2022-07-29T18:36:46.026Z,29.21
2022-07-29T18:39:20.300Z,29.15
2022-07-29T18:41:50.736Z,29.10
2022-07-29T18:44:21.977Z,29.06
2022-07-29T18:46:51.587Z,29.03
2022-07-29T18:49:19.403Z,28.99
2022-07-29T18:51:46.784Z,28.97
2022-07-29T18:54:15.117Z,28.90
2022-07-29T18:56:42.441Z,28.88
2022-07-29T18:59:11.559Z,28.82
2022-07-29T19:01:39.248Z,28.79
2022-07-29T19:04:10.883Z,28.69
2022-07-29T19:06:38.451Z,28.62
2022-07-29T19:09:05.843Z,28.54
2022-07-29T19:11:33.795Z,28.51
2022-07-29T19:14:03.905Z,28.43
2022-07-29T19:16:32.046Z,28.39
2022-07-29T19:19:01.094Z,28.25
2022-07-29T19:21:29.034Z,28.27
2022-07-29T19:24:06.024Z,28.21
2022-07-29T19:26:39.778Z,28.26
2022-07-29T19:29:07.041Z,28.12
2022-07-29T19:31:34.353Z,28.16
2022-07-29T19:34:01.674Z,28.05
2022-07-29T19:36:29.044Z,28.02
2022-07-29T19:38:56.345Z,28.02
2022-07-29T19:41:23.660Z,28.01
2022-07-29T19:43:53.073Z,27.87
2022-07-29T19:46:21.765Z,27.90
2022-07-29T19:48:49.504Z,27.81
2022-07-29T19:51:17.444Z,27.83
2022-07-29T19:53:44.733Z,27.75
2022-07-29T19:56:12.011Z,27.72
2022-07-29T19:58:41.269Z,27.70
2022-07-29T20:01:10.694Z,27.64
2022-07-29T20:03:40.344Z,27.56
2022-07-29T20:06:08.063Z,27.55
2022-07-29T20:08:35.600Z,27.50
2022-07-29T20:11:03.653Z,27.43
2022-07-29T20:13:33.226Z,27.43
2022-07-29T20:16:01.968Z,27.45
2022-07-29T20:18:29.475Z,27.42
2022-07-29T20:20:57.714Z,27.36
2022-07-29T20:23:25.147Z,27.41
2022-07-29T20:25:54.136Z,27.39
2022-07-29T20:28:22.409Z,27.27
2022-07-29T20:30:49.789Z,27.35
2022-07-29T20:33:16.984Z,27.37
2022-07-29T20:35:44.556Z,27.33
2022-07-29T20:38:15.126Z,27.21
2022-07-29T20:40:45.894Z,27.37
2022-07-29T20:43:13.160Z,27.23
2022-07-29T20:45:40.512Z,27.03
2022-07-29T20:48:08.225Z,27.19
2022-07-29T20:50:36.141Z,27.08
2022-07-29T20:53:03.627Z,27.08
2022-07-29T20:55:32.259Z,26.99
2022-07-29T20:57:59.459Z,27.07
2022-07-29T21:00:26.943Z,26.94
2022-07-29T21:02:54.558Z,26.91
2022-07-29T21:05:21.867Z,26.89
2022-07-29T21:07:49.290Z,26.98
2022-07-29T21:10:18.473Z,26.87
2022-07-29T21:12:49.528Z,26.79
2022-07-29T21:15:20.813Z,26.83
2022-07-29T21:17:48.454Z,26.79
2022-07-29T21:20:17.530Z,26.71
2022-07-29T21:22:45.179Z,26.62
2022-07-29T21:25:12.664Z,26.50
2022-07-29T21:27:58.613Z,26.44
2022-07-29T21:30:26.631Z,26.52
2022-07-29T21:32:53.784Z,26.50
2022-07-29T21:36:01.628Z,26.52
2022-07-29T21:38:08.845Z,26.31
2022-07-29T21:40:36.536Z,26.35
2022-07-29T21:43:04.044Z,26.37
2022-07-29T21:45:31.199Z,26.31
2022-07-29T21:47:58.446Z,26.24
2022-07-29T21:50:25.648Z,26.21
2022-07-29T21:52:52.836Z,26.19
2022-07-29T21:55:20.577Z,26.10
2022-07-29T21:57:49.908Z,26.01
2022-07-29T22:00:17.129Z,25.93
2022-07-29T22:02:45.105Z,25.90
2022-07-29T22:05:12.686Z,25.82
2022-07-29T22:07:56.453Z,25.71
2022-07-29T22:10:26.126Z,25.79
2022-07-29T22:12:55.198Z,25.74
2022-07-29T22:15:22.494Z,25.65
2022-07-29T22:17:49.923Z,25.66
2022-07-29T22:20:17.325Z,25.60
2022-07-29T22:22:44.512Z,25.60
2022-07-29T22:25:11.839Z,25.47
2022-07-29T22:27:39.501Z,25.44
2022-07-29T22:30:07.967Z,25.41
2022-07-29T22:32:35.441Z,25.42
2022-07-29T22:35:02.767Z,25.39
2022-07-29T22:37:31.239Z,25.35
2022-07-29T22:39:58.472Z,25.25
2022-07-29T22:42:26.197Z,25.23
2022-07-29T22:44:53.324Z,25.21
2022-07-29T22:47:39.814Z,25.21
2022-07-29T22:50:08.228Z,25.15
2022-07-29T22:52:35.478Z,25.13
2022-07-29T22:55:03.866Z,25.11
2022-07-29T22:57:31.250Z,25.11
2022-07-29T23:00:01.803Z,25.05
2022-07-29T23:02:31.617Z,25.07
2022-07-29T23:04:58.796Z,25.01
2022-07-29T23:07:27.532Z,25.05
2022-07-29T23:09:54.728Z,25.01
2022-07-29T23:12:22.369Z,24.98
2022-07-29T23:14:49.586Z,24.94
2022-07-29T23:17:16.954Z,24.81
2022-07-29T23:19:44.244Z,24.84
2022-07-29T23:22:12.096Z,24.83
2022-07-29T23:24:39.359Z,24.77
2022-07-29T23:27:08.571Z,24.82
2022-07-29T23:29:36.858Z,24.81
2022-07-29T23:32:04.503Z,24.78
2022-07-29T23:34:31.767Z,24.72
2022-07-29T23:36:59.353Z,24.69
2022-07-29T23:39:26.723Z,24.59
2022-07-29T23:41:53.900Z,24.59
2022-07-29T23:44:21.568Z,24.57
2022-07-29T23:46:48.945Z,24.54
2022-07-29T23:49:16.341Z,24.46
2022-07-29T23:51:43.675Z,24.51
2022-07-29T23:54:10.929Z,24.42
2022-07-29T23:56:38.030Z,24.34
2022-07-29T23:59:05.946Z,24.32
